Terminal Aerodrome Forecast
Issued by NWS Columbia, SC

Home | Current Version | Previous Version | Text Only | Print | Product List | Glossary On
Versions: 1 2 3 4 5 6 7 8 9 10 11 12 13 14 15 16 17 18 19 20 21 22 23 24 25 26 27 28 29 30 31 32 33 34 35 36 37 38 39 40 41 42 43 44 45 46 47 48 49
000
FTAK31 PAJN 271100
TAFAGS
TAF
PAGS 271124Z 2712/2812 12007KT P6SM VCSH SCT050 BKN060 BKN100
      TEMPO 2712/2716 -SHRA SCT040 BKN050 BKN060
     FM271600 13007KT P6SM -SHRA BKN050 OVC070
     FM280000 07006KT P6SM VCSH SCT030 BKN060
     FM280600 34005KT P6SM BKN060 BKN100
      AMD LTD TO CLD VIS AND WIND=

USA.gov is the U.S. government's official web portal to all federal, state and local government web resources and services.